Pagrindinis puslapis
METAR-TAF:

METAR-TAF

Oro uostai :

Calvi, Prancūzija

platuma: 42-32N, ilguma: 008-48E, Aukštis: 64 m

Dabartinis oras

Ataskaita buvo paskelbta 21 minutes, ne 19:00 UTC
Vėjas 5 kt iš Šiaurės, svyruoja nuo Vakarų ir Rytų/Šiaurės Rytų
Temperatūra 23°C
Drėgmė 73%
Slėgis 1017 hPa
Matomumas 10 km arba daugiau
nėra debesų žemiau 1500 m ir nėra kamuolinių lietaus debesų

METAR: LFKC 191900Z AUTO 36005KT 260V070 CAVOK 23/18 Q1017 NOSIG

Laikas: 21:21 (19:21 UTC)

Prognozė

Ataskaita buvo paskelbta 5 valandos ir 21 minutes, ne 14:00 UTC
Prognozė galioja nuo 19 metu 15 UTC su 20 metu 15 UTC
Vėjas 10 kt iš Šiaurės
Matomumas 10 km arba daugiau
Mažai debesys ne aukštis 3000 ft
Tapsmas
nuo 19 metu 18 UTC su 19 metu 20 UTC
Vėjas 6 kt iš Pietų
Tapsmas
nuo 20 metu 07 UTC su 20 metu 09 UTC
Vėjas 10 kt iš Šiaurės
Laikinai
nuo 20 metu 10 UTC su 20 metu 14 UTC
Vėjas 15 kt iš Šiaurės su gūsio iki 25 kt

TAF: LFKC 191400Z 1915/2015 35010KT 9999 FEW030 TX26/1915Z TN16/2004Z BECMG 1918/1920 18006KT BECMG 2007/2009 01010KT TEMPO 2010/2014 01015G25KT

Orai ataskaitas ir orų prognozės (METAR, TAF).

turimą stotys yra geltonos ir raudonos taškus žemėlapyje.

Perkelti pele per norėdami pamatyti stoties vardą.

Tada spustelėkite, norėdami matyti oro stebėjimo ir prognozės.

Norėdami pakeisti žemėlapį: spustelėkite ant žalios mygtukų su juodo kryžiaus žemyn,; žalią mygtuką su brūkšneliu, jei norite nutolinti; arba žalių rodyklių gretimoms žemėlapius.


METAR-TAF: